createdAt,value
2022-07-29T00:01:29.495Z,4.28
2022-07-29T00:06:32.880Z,4.07
2022-07-29T00:11:36.237Z,3.70
2022-07-29T00:16:41.226Z,4.07
2022-07-29T00:21:44.689Z,4.00
2022-07-29T00:26:48.709Z,3.22
2022-07-29T00:31:53.541Z,3.20
2022-07-29T00:36:57.048Z,3.70
2022-07-29T00:42:00.377Z,3.90
2022-07-29T00:47:05.872Z,3.00
2022-07-29T00:52:10.423Z,3.50
2022-07-29T00:57:14.501Z,2.60
2022-07-29T01:02:19.699Z,2.55
2022-07-29T01:07:23.015Z,2.38
2022-07-29T01:12:28.418Z,2.50
2022-07-29T01:17:38.518Z,2.22
2022-07-29T01:23:09.990Z,2.55
2022-07-29T01:28:37.230Z,2.15
2022-07-29T01:33:53.137Z,2.40
2022-07-29T01:39:04.726Z,2.20
2022-07-29T01:44:19.016Z,2.65
2022-07-29T01:49:27.958Z,3.17
2022-07-29T01:54:37.224Z,1.83
2022-07-29T01:59:45.563Z,2.45
2022-07-29T02:04:50.758Z,2.10
2022-07-29T02:09:55.830Z,1.80
2022-07-29T02:15:03.279Z,1.83
2022-07-29T02:20:09.807Z,2.25
2022-07-29T02:25:14.434Z,1.90
2022-07-29T02:30:20.381Z,2.15
2022-07-29T02:35:24.565Z,2.45
2022-07-29T02:40:28.190Z,1.83
2022-07-29T02:45:35.403Z,1.92
2022-07-29T02:50:45.054Z,2.15
2022-07-29T02:55:53.732Z,2.00
2022-07-29T03:01:00.437Z,2.15
2022-07-29T03:06:05.283Z,2.28
2022-07-29T03:17:00.817Z,1.80
2022-07-29T03:22:04.699Z,2.15
2022-07-29T03:27:08.084Z,1.95
2022-07-29T03:32:12.816Z,1.88
2022-07-29T03:37:17.394Z,2.10
2022-07-29T03:42:25.819Z,1.90
2022-07-29T03:47:45.184Z,2.22
2022-07-29T03:52:54.798Z,2.00
2022-07-29T03:57:59.526Z,1.80
2022-07-29T04:03:10.856Z,1.50
2022-07-29T04:08:15.375Z,1.90
2022-07-29T04:13:18.763Z,1.80
2022-07-29T04:18:23.456Z,1.70
2022-07-29T04:23:27.399Z,1.95
2022-07-29T04:28:30.748Z,1.88
2022-07-29T04:33:35.477Z,1.88
2022-07-29T04:38:39.411Z,2.05
2022-07-29T04:43:42.798Z,2.00
2022-07-29T04:48:48.889Z,1.90
2022-07-29T04:53:52.303Z,1.73
2022-07-29T04:58:56.042Z,1.95
2022-07-29T05:04:01.120Z,2.13
2022-07-29T05:09:04.628Z,2.28
2022-07-29T05:14:08.065Z,2.30
2022-07-29T05:19:14.631Z,2.22
2022-07-29T05:24:18.762Z,2.33
2022-07-29T05:29:43.889Z,2.05
2022-07-29T05:34:50.772Z,2.40
2022-07-29T05:39:56.610Z,2.00
2022-07-29T05:45:00.677Z,2.20
2022-07-29T05:50:06.807Z,2.10
2022-07-29T05:55:11.139Z,2.67
2022-07-29T06:00:15.270Z,3.00
2022-07-29T06:05:20.108Z,2.67
2022-07-29T06:10:26.321Z,2.90
2022-07-29T06:15:30.637Z,2.33
2022-07-29T06:20:35.363Z,2.22
2022-07-29T06:25:38.820Z,2.10
2022-07-29T06:30:42.271Z,2.53
2022-07-29T06:35:53.134Z,2.92
2022-07-29T06:41:05.016Z,1.58
2022-07-29T06:46:11.186Z,2.03
2022-07-29T06:51:16.330Z,2.30
2022-07-29T06:56:20.003Z,2.15
2022-07-29T07:01:23.952Z,2.40
2022-07-29T07:06:29.076Z,2.17
2022-07-29T07:11:32.684Z,2.78
2022-07-29T07:16:36.068Z,1.70
2022-07-29T07:21:40.840Z,2.38
2022-07-29T07:26:44.181Z,2.67
2022-07-29T07:31:47.788Z,2.13
2022-07-29T07:36:52.555Z,2.30
2022-07-29T07:41:55.932Z,2.10
2022-07-29T07:47:03.956Z,1.77
2022-07-29T07:52:18.026Z,2.30
2022-07-29T07:57:21.382Z,2.55
2022-07-29T08:02:24.892Z,2.33
2022-07-29T08:07:30.308Z,1.80
2022-07-29T08:12:33.676Z,2.20
2022-07-29T08:17:37.469Z,1.95
2022-07-29T08:22:42.462Z,1.90
2022-07-29T08:27:45.807Z,1.80
2022-07-29T08:32:54.344Z,2.00
2022-07-29T08:37:59.767Z,2.00
2022-07-29T08:43:09.377Z,1.77
2022-07-29T08:48:13.930Z,1.92
2022-07-29T08:53:19.727Z,1.95
2022-07-29T08:58:24.640Z,1.67
2022-07-29T09:03:33.326Z,1.65
2022-07-29T09:08:38.039Z,2.40
2022-07-29T09:13:41.551Z,1.58
2022-07-29T09:18:46.334Z,1.67
2022-07-29T09:24:06.259Z,1.98
2022-07-29T09:29:12.087Z,2.30
2022-07-29T09:34:29.405Z,2.10
2022-07-29T09:39:34.969Z,1.67
2022-07-29T09:44:49.618Z,2.10
2022-07-29T09:49:58.963Z,2.33
2022-07-29T09:55:08.081Z,2.55
2022-07-29T10:05:22.956Z,2.88
2022-07-29T10:10:28.320Z,2.35
2022-07-29T10:15:33.777Z,2.03
2022-07-29T10:20:38.764Z,2.03
2022-07-29T10:25:46.259Z,1.70
2022-07-29T10:30:53.605Z,2.10
2022-07-29T10:36:09.609Z,2.20
2022-07-29T10:41:54.784Z,1.90
2022-07-29T10:46:59.082Z,1.95
2022-07-29T10:52:07.913Z,2.33
2022-07-29T10:57:21.449Z,2.22
2022-07-29T11:02:47.002Z,2.20
2022-07-29T11:08:26.260Z,2.05
2022-07-29T11:13:51.292Z,2.35
2022-07-29T11:19:29.770Z,2.00
2022-07-29T11:24:36.990Z,2.25
2022-07-29T11:29:50.057Z,2.40
2022-07-29T11:35:22.338Z,2.63
2022-07-29T11:40:43.434Z,2.20
2022-07-29T11:45:48.758Z,2.83
2022-07-29T11:50:53.862Z,2.28
2022-07-29T11:56:00.994Z,2.05
2022-07-29T12:01:06.310Z,2.40
2022-07-29T12:06:17.946Z,2.30
2022-07-29T12:11:23.735Z,2.10
2022-07-29T12:16:37.952Z,2.50
2022-07-29T12:21:59.563Z,2.42
2022-07-29T12:27:05.390Z,2.20
2022-07-29T12:32:14.866Z,3.00
2022-07-29T12:37:41.226Z,2.42
2022-07-29T12:43:08.916Z,2.20
2022-07-29T12:48:12.692Z,2.25
2022-07-29T12:53:15.989Z,2.25
2022-07-29T12:58:34.227Z,2.35
2022-07-29T13:03:57.006Z,2.92
2022-07-29T13:09:11.702Z,2.95
2022-07-29T13:14:32.134Z,5.00
2022-07-29T13:19:37.816Z,3.22
2022-07-29T13:24:48.567Z,3.00
2022-07-29T13:29:54.500Z,2.67
2022-07-29T13:34:57.910Z,2.53
2022-07-29T13:40:01.409Z,2.70
2022-07-29T13:45:08.624Z,2.75
2022-07-29T13:50:11.944Z,2.67
2022-07-29T13:55:15.516Z,2.65
2022-07-29T14:00:21.025Z,2.47
2022-07-29T14:05:24.586Z,2.70
2022-07-29T14:10:28.411Z,2.10
2022-07-29T14:15:33.183Z,2.15
2022-07-29T14:20:42.746Z,2.50
2022-07-29T14:25:46.127Z,2.00
2022-07-29T14:30:54.217Z,2.20
2022-07-29T14:36:01.190Z,2.47
2022-07-29T14:41:04.768Z,2.20
2022-07-29T14:46:09.504Z,2.30
2022-07-29T14:51:13.183Z,2.55
2022-07-29T14:56:35.933Z,2.05
2022-07-29T15:01:41.321Z,2.60
2022-07-29T15:06:44.904Z,2.60
2022-07-29T15:11:48.355Z,2.75
2022-07-29T15:16:53.084Z,2.60
2022-07-29T15:21:59.656Z,3.15
2022-07-29T15:27:03.209Z,2.85
2022-07-29T15:32:08.927Z,2.95
2022-07-29T15:37:12.552Z,2.70
2022-07-29T15:42:16.275Z,3.17
2022-07-29T15:47:22.656Z,3.38
2022-07-29T15:52:26.580Z,2.90
2022-07-29T15:57:30.186Z,2.83
2022-07-29T16:02:34.954Z,2.60
2022-07-29T16:07:38.662Z,2.42
2022-07-29T16:12:41.984Z,2.75
2022-07-29T16:17:46.851Z,2.92
2022-07-29T16:22:50.353Z,2.83
2022-07-29T16:27:58.149Z,3.90
2022-07-29T16:38:12.172Z,4.97
2022-07-29T16:43:15.888Z,3.55
2022-07-29T16:48:20.806Z,3.80
2022-07-29T16:53:28.352Z,3.67
2022-07-29T16:58:33.445Z,3.30
2022-07-29T17:04:00.254Z,4.30
2022-07-29T17:09:05.514Z,3.13
2022-07-29T17:14:09.074Z,3.83
2022-07-29T17:19:14.455Z,3.45
2022-07-29T17:24:18.063Z,4.25
2022-07-29T17:29:22.285Z,3.67
2022-07-29T17:34:27.080Z,4.10
2022-07-29T17:39:30.774Z,4.03
2022-07-29T17:44:36.273Z,3.80
2022-07-29T17:49:41.296Z,3.97
2022-07-29T17:54:44.784Z,4.32
2022-07-29T17:59:48.062Z,3.75
2022-07-29T18:04:52.733Z,3.97
2022-07-29T18:10:00.411Z,4.32
2022-07-29T18:15:05.445Z,5.47
2022-07-29T18:20:11.672Z,5.03
2022-07-29T18:25:15.066Z,4.82
2022-07-29T18:30:19.318Z,5.50
2022-07-29T18:35:24.022Z,5.10
2022-07-29T18:40:27.869Z,5.30
2022-07-29T18:45:33.180Z,5.50
2022-07-29T18:50:38.017Z,4.60
2022-07-29T18:55:41.321Z,4.60
2022-07-29T19:00:44.648Z,7.57
2022-07-29T19:05:49.557Z,4.38
2022-07-29T19:10:53.444Z,4.70
2022-07-29T19:15:56.862Z,4.50
2022-07-29T19:21:01.545Z,4.35
2022-07-29T19:26:05.274Z,4.90
2022-07-29T19:31:11.826Z,4.85
2022-07-29T19:36:16.640Z,5.85
2022-07-29T19:41:20.020Z,5.22
2022-07-29T19:46:24.108Z,5.07
2022-07-29T19:51:28.892Z,5.20
2022-07-29T19:56:32.229Z,5.45
2022-07-29T20:01:35.652Z,6.50
2022-07-29T20:06:40.977Z,5.47
2022-07-29T20:11:44.268Z,5.85
2022-07-29T20:16:47.704Z,8.15
2022-07-29T20:21:52.536Z,5.90
2022-07-29T20:26:55.892Z,6.68
2022-07-29T20:31:59.193Z,7.72
2022-07-29T20:37:04.009Z,9.55
2022-07-29T20:42:07.938Z,10.68
2022-07-29T20:47:11.536Z,10.25
2022-07-29T20:52:16.363Z,10.00
2022-07-29T20:57:19.707Z,9.65
2022-07-29T21:02:42.375Z,10.18
2022-07-29T21:07:47.103Z,11.50
2022-07-29T21:12:50.642Z,9.93
2022-07-29T21:18:00.665Z,10.05
2022-07-29T21:23:05.384Z,10.63
2022-07-29T21:28:25.994Z,10.65
2022-07-29T21:33:31.311Z,10.98
2022-07-29T21:38:36.433Z,10.55
2022-07-29T21:43:41.856Z,11.48
2022-07-29T21:48:45.519Z,11.18
2022-07-29T21:53:50.664Z,11.73
2022-07-29T21:58:56.527Z,11.57
2022-07-29T22:03:59.878Z,9.18
2022-07-29T22:09:05.528Z,9.00
2022-07-29T22:14:08.873Z,7.97
2022-07-29T22:19:12.434Z,7.00
2022-07-29T22:24:17.701Z,6.65
2022-07-29T22:29:21.026Z,5.60
2022-07-29T22:34:24.342Z,4.57
2022-07-29T22:39:35.334Z,4.70
2022-07-29T22:44:38.659Z,4.25
2022-07-29T22:49:42.120Z,4.32
2022-07-29T22:54:46.734Z,4.90
2022-07-29T22:59:50.052Z,4.38
2022-07-29T23:04:53.383Z,4.43
2022-07-29T23:09:58.077Z,3.97
2022-07-29T23:15:01.392Z,4.40
2022-07-29T23:20:09.859Z,3.80
2022-07-29T23:25:14.697Z,3.42
2022-07-29T23:30:18.074Z,3.72
2022-07-29T23:35:21.581Z,3.38
2022-07-29T23:40:26.280Z,3.65
2022-07-29T23:45:40.028Z,2.80
2022-07-29T23:50:48.463Z,3.65
2022-07-29T23:55:53.213Z,3.35
